Capt Leroy Devall Inc — WYU9878 — position and weather

sailwx.info

Track history (hours):
 
Tides and Currents Weather Stations Pressure Air Temp Water Temp Dewpoint Dewpoint Depression Visibility Wind Speed Wind Dir Waves Ship Positions

Capt Leroy Devall Inc

Owner: CAPT LEROY DEVALL INC, Sulphur, LA. More information available from US FCC via Universal Licensing System and Coast Guard Vessel Documentation Center.

Last reported at 2018-Jun-20 19:29 UTC. Time now 2018-Jun-20 21:04 UTC.
Position N 29°23' W 094°46'.

Length 20 m; draft 2.5 m.

Type: Towing. MMSI: 366973450.

Date/timePositionNaut miles runAvg speedWind from/ knotsBaromVisibWave heightAir tempDewpointWater temp
2018-Jun-20 19:29N 29°23' W 094°46'0 0.0
2018-Jun-20 15:30N 29°23' W 094°46'0 0.0
2018-Jun-20 13:44N 29°23' W 094°46'1 0.0
2018-Jun-19 06:04N 29°24' W 094°45'0 0.0
2018-Jun-18 12:56N 29°24' W 094°45'29 2.7
2018-Jun-18 02:11N 29°39' W 094°16'2 6.7
2018-Jun-18 01:56N 29°40' W 094°15'3 6.8
2018-Jun-18 01:30N 29°41' W 094°12'3 6.6
2018-Jun-18 01:00N 29°42' W 094°08'3 6.8
2018-Jun-18 00:30N 29°44' W 094°05'3 6.8
2018-Jun-18 00:00N 29°47' W 094°02'3 6.8
2018-Jun-17 23:30N 29°49' W 093°59'3 5.3
2018-Jun-17 23:00N 29°51' W 093°57'4 7.0
2018-Jun-17 22:30N 29°54' W 093°55'4 7.1
2018-Jun-17 22:00N 29°56' W 093°52'2 4.9
2018-Jun-17 21:30N 29°58' W 093°50'3 6.3
2018-Jun-17 21:00N 29°60' W 093°47'3 6.2
2018-Jun-17 20:30N 30°02' W 093°44'  
2018-Jun-14 22:33N 30°03' W 093°44'0 0.0
2018-Jun-14 22:24N 30°03' W 093°44'0 0.0
2018-Jun-14 21:58N 30°03' W 093°44'0 0.0
2018-Jun-14 19:47N 30°03' W 093°44'0 0.0
2018-Jun-14 19:17N 30°03' W 093°44'0 0.0
2018-Jun-14 18:59N 30°03' W 093°44'0 0.0
2018-Jun-14 18:30N 30°03' W 093°44'0 0.0
2018-Jun-14 18:00N 30°03' W 093°44'0 0.0
2018-Jun-14 17:30N 30°03' W 093°44'0 0.0
2018-Jun-14 17:00N 30°03' W 093°44'0 0.0
2018-Jun-14 16:30N 30°03' W 093°44'0 0.0
2018-Jun-13 21:01N 30°03' W 093°44'0 0.0
2018-Jun-13 21:00N 30°03' W 093°44'0 0.0
2018-Jun-13 20:30N 30°03' W 093°44'0 0.0
2018-Jun-13 20:00N 30°03' W 093°44'0 0.0
2018-Jun-13 19:30N 30°03' W 093°44'0 0.0
2018-Jun-13 19:00N 30°03' W 093°44'0 0.0
2018-Jun-13 18:30N 30°03' W 093°44'0 0.0
2018-Jun-13 18:00N 30°03' W 093°44'0 0.0
2018-Jun-13 17:30N 30°03' W 093°44'0 0.0
2018-Jun-13 17:00N 30°03' W 093°44'0 0.0
2018-Jun-13 16:30N 30°03' W 093°44'0 0.0
2018-Jun-13 16:00N 30°03' W 093°44'0 0.0
2018-Jun-13 15:30N 30°03' W 093°44'0 0.0
2018-Jun-13 15:00N 30°03' W 093°44'0 0.0
2018-Jun-13 14:30N 30°03' W 093°44'0 0.0
2018-Jun-13 14:00N 30°03' W 093°44'0 0.0
2018-Jun-13 13:30N 30°03' W 093°44'0 0.0
2018-Jun-13 13:00N 30°03' W 093°44'0 0.0
2018-Jun-13 02:18N 30°03' W 093°44'1 2.7
2018-Jun-13 02:00N 30°03' W 093°44'3 6.9
2018-Jun-13 01:30N 29°60' W 093°46'4 7.3
2018-Jun-13 01:01N 29°59' W 093°50'4 7.0
2018-Jun-13 00:30N 29°56' W 093°53'4 7.0
2018-Jun-13 00:01N 29°53' W 093°55'4 7.0
2018-Jun-12 23:30N 29°50' W 093°57'4 7.7
2018-Jun-12 23:00N 29°48' W 094°01'4 7.9
2018-Jun-12 22:30N 29°45' W 094°04'4 7.8
2018-Jun-12 22:01N 29°43' W 094°08'4 7.4
2018-Jun-12 21:29N 29°41' W 094°12'4 7.5
2018-Jun-12 20:59N 29°39' W 094°16'32 7.1
2018-Jun-12 16:24N 29°22' W 094°47'13 7.4
2018-Jun-12 14:40N 29°33' W 094°55'1 7.1
2018-Jun-12 14:28N 29°34' W 094°56'3 6.5
2018-Jun-12 13:58N 29°37' W 094°58'2 5.4
2018-Jun-12 13:30N 29°37' W 095°01'0 0.1
2018-Jun-12 13:00N 29°37' W 095°01'0 0.0
2018-Jun-12 12:28N 29°37' W 095°01'0 0.0
2018-Jun-12 12:00N 29°37' W 095°01'0 0.0
2018-Jun-12 11:29N 29°37' W 095°01'0 0.0
2018-Jun-12 11:00N 29°37' W 095°01'0 0.0
2018-Jun-12 10:29N 29°37' W 095°01'0 0.0
2018-Jun-12 10:00N 29°37' W 095°01'0 0.0
2018-Jun-12 09:28N 29°37' W 095°01'0 0.0
2018-Jun-12 09:00N 29°37' W 095°01'0 0.0
2018-Jun-12 08:29N 29°37' W 095°01'0 0.0
2018-Jun-12 08:00N 29°37' W 095°01'0 0.0
2018-Jun-12 07:29N 29°37' W 095°01'0 0.0
2018-Jun-12 06:58N 29°37' W 095°01'0 0.0
2018-Jun-12 06:30N 29°37' W 095°01'0 0.0
2018-Jun-12 05:59N 29°37' W 095°01'0 0.0
2018-Jun-12 05:27N 29°37' W 095°01'0 0.0
2018-Jun-12 05:00N 29°37' W 095°01'0 0.0
2018-Jun-12 04:28N 29°37' W 095°01'0 0.0
2018-Jun-12 04:00N 29°37' W 095°01'0 0.0
2018-Jun-11 21:25N 29°36' W 095°01'0 0.0
2018-Jun-11 20:54N 29°36' W 095°01'0 0.0
2018-Jun-11 19:54N 29°36' W 095°01'0 0.0
2018-Jun-11 19:02N 29°36' W 095°01'0 0.0
2018-Jun-11 18:46N 29°36' W 095°01'0 0.0
2018-Jun-11 18:01N 29°36' W 095°01'0 0.1
2018-Jun-11 17:54N 29°36' W 095°01'2 4.4
2018-Jun-11 17:30N 29°37' W 094°59'18 3.5
2018-Jun-11 12:26N 29°23' W 094°46'20 2.9
2018-Jun-11 05:24N 29°34' W 094°27'3 4.4
2018-Jun-11 04:45N 29°36' W 094°24'3 5.0
2018-Jun-11 04:12N 29°37' W 094°21'1 5.5
2018-Jun-11 04:00N 29°37' W 094°20'3 5.3
2018-Jun-11 03:29N 29°38' W 094°17'3 5.2
2018-Jun-11 03:00N 29°40' W 094°15'3 5.2
2018-Jun-11 02:30N 29°41' W 094°12'3 5.2
2018-Jun-11 02:00N 29°41' W 094°09'3 5.2
2018-Jun-11 01:30N 29°43' W 094°07'3 5.2
2018-Jun-11 01:00N 29°45' W 094°05'3 5.1
2018-Jun-11 00:30N 29°46' W 094°02'3 5.2
2018-Jun-11 00:00N 29°48' W 094°00'2 4.8
2018-Jun-10 23:30N 29°49' W 093°58'3 6.8
2018-Jun-10 23:00N 29°52' W 093°56'4 7.3
2018-Jun-10 22:30N 29°55' W 093°53'3 6.9
2018-Jun-10 22:00N 29°58' W 093°51'3 5.9
2018-Jun-10 21:30N 29°59' W 093°48'3 6.0
2018-Jun-10 21:00N 30°01' W 093°45'2 4.9
2018-Jun-10 20:30N 30°03' W 093°44'0 0.4
2018-Jun-10 20:00N 30°03' W 093°44'0 0.0
2018-Jun-10 19:30N 30°03' W 093°44'  
Track history (hours):
 
Tides and Currents Weather Stations Pressure Air Temp Water Temp Dewpoint Dewpoint Depression Visibility Wind Speed Wind Dir Waves Ship Positions

Capt Leroy Devall Inc

Owner: CAPT LEROY DEVALL INC, Sulphur, LA. More information available from US FCC via Universal Licensing System and Coast Guard Vessel Documentation Center.

Last reported at 2018-Jun-20 19:29 UTC. Time now 2018-Jun-20 21:04 UTC.
Position N 29°23' W 094°46'.

Length 20 m; draft 2.5 m.

Type: Towing. MMSI: 366973450.

Date/timePositionNaut miles runAvg speedWind from/ knotsBaromVisibWave heightAir tempDewpointWater temp
2018-Jun-20 19:29N 29°23' W 094°46'0 0.0
2018-Jun-20 15:30N 29°23' W 094°46'0 0.0
2018-Jun-20 13:44N 29°23' W 094°46'1 0.0
2018-Jun-19 06:04N 29°24' W 094°45'0 0.0
2018-Jun-18 12:56N 29°24' W 094°45'29 2.7
2018-Jun-18 02:11N 29°39' W 094°16'2 6.7
2018-Jun-18 01:56N 29°40' W 094°15'3 6.8
2018-Jun-18 01:30N 29°41' W 094°12'3 6.6
2018-Jun-18 01:00N 29°42' W 094°08'3 6.8
2018-Jun-18 00:30N 29°44' W 094°05'3 6.8
2018-Jun-18 00:00N 29°47' W 094°02'3 6.8
2018-Jun-17 23:30N 29°49' W 093°59'3 5.3
2018-Jun-17 23:00N 29°51' W 093°57'4 7.0
2018-Jun-17 22:30N 29°54' W 093°55'4 7.1
2018-Jun-17 22:00N 29°56' W 093°52'2 4.9
2018-Jun-17 21:30N 29°58' W 093°50'3 6.3
2018-Jun-17 21:00N 29°60' W 093°47'3 6.2
2018-Jun-17 20:30N 30°02' W 093°44'  
2018-Jun-14 22:33N 30°03' W 093°44'0 0.0
2018-Jun-14 22:24N 30°03' W 093°44'0 0.0
2018-Jun-14 21:58N 30°03' W 093°44'0 0.0
2018-Jun-14 19:47N 30°03' W 093°44'0 0.0
2018-Jun-14 19:17N 30°03' W 093°44'0 0.0
2018-Jun-14 18:59N 30°03' W 093°44'0 0.0
2018-Jun-14 18:30N 30°03' W 093°44'0 0.0
2018-Jun-14 18:00N 30°03' W 093°44'0 0.0
2018-Jun-14 17:30N 30°03' W 093°44'0 0.0
2018-Jun-14 17:00N 30°03' W 093°44'0 0.0
2018-Jun-14 16:30N 30°03' W 093°44'0 0.0
2018-Jun-13 21:01N 30°03' W 093°44'0 0.0
2018-Jun-13 21:00N 30°03' W 093°44'0 0.0
2018-Jun-13 20:30N 30°03' W 093°44'0 0.0
2018-Jun-13 20:00N 30°03' W 093°44'0 0.0
2018-Jun-13 19:30N 30°03' W 093°44'0 0.0
2018-Jun-13 19:00N 30°03' W 093°44'0 0.0
2018-Jun-13 18:30N 30°03' W 093°44'0 0.0
2018-Jun-13 18:00N 30°03' W 093°44'0 0.0
2018-Jun-13 17:30N 30°03' W 093°44'0 0.0
2018-Jun-13 17:00N 30°03' W 093°44'0 0.0
2018-Jun-13 16:30N 30°03' W 093°44'0 0.0
2018-Jun-13 16:00N 30°03' W 093°44'0 0.0
2018-Jun-13 15:30N 30°03' W 093°44'0 0.0
2018-Jun-13 15:00N 30°03' W 093°44'0 0.0
2018-Jun-13 14:30N 30°03' W 093°44'0 0.0
2018-Jun-13 14:00N 30°03' W 093°44'0 0.0
2018-Jun-13 13:30N 30°03' W 093°44'0 0.0
2018-Jun-13 13:00N 30°03' W 093°44'0 0.0
2018-Jun-13 02:18N 30°03' W 093°44'1 2.7
2018-Jun-13 02:00N 30°03' W 093°44'3 6.9
2018-Jun-13 01:30N 29°60' W 093°46'4 7.3
2018-Jun-13 01:01N 29°59' W 093°50'4 7.0
2018-Jun-13 00:30N 29°56' W 093°53'4 7.0
2018-Jun-13 00:01N 29°53' W 093°55'4 7.0
2018-Jun-12 23:30N 29°50' W 093°57'4 7.7
2018-Jun-12 23:00N 29°48' W 094°01'4 7.9
2018-Jun-12 22:30N 29°45' W 094°04'4 7.8
2018-Jun-12 22:01N 29°43' W 094°08'4 7.4
2018-Jun-12 21:29N 29°41' W 094°12'4 7.5
2018-Jun-12 20:59N 29°39' W 094°16'32 7.1
2018-Jun-12 16:24N 29°22' W 094°47'13 7.4
2018-Jun-12 14:40N 29°33' W 094°55'1 7.1
2018-Jun-12 14:28N 29°34' W 094°56'3 6.5
2018-Jun-12 13:58N 29°37' W 094°58'2 5.4
2018-Jun-12 13:30N 29°37' W 095°01'0 0.1
2018-Jun-12 13:00N 29°37' W 095°01'0 0.0
2018-Jun-12 12:28N 29°37' W 095°01'0 0.0
2018-Jun-12 12:00N 29°37' W 095°01'0 0.0
2018-Jun-12 11:29N 29°37' W 095°01'0 0.0
2018-Jun-12 11:00N 29°37' W 095°01'0 0.0
2018-Jun-12 10:29N 29°37' W 095°01'0 0.0
2018-Jun-12 10:00N 29°37' W 095°01'0 0.0
2018-Jun-12 09:28N 29°37' W 095°01'0 0.0
2018-Jun-12 09:00N 29°37' W 095°01'0 0.0
2018-Jun-12 08:29N 29°37' W 095°01'0 0.0
2018-Jun-12 08:00N 29°37' W 095°01'0 0.0
2018-Jun-12 07:29N 29°37' W 095°01'0 0.0
2018-Jun-12 06:58N 29°37' W 095°01'0 0.0
2018-Jun-12 06:30N 29°37' W 095°01'0 0.0
2018-Jun-12 05:59N 29°37' W 095°01'0 0.0
2018-Jun-12 05:27N 29°37' W 095°01'0 0.0
2018-Jun-12 05:00N 29°37' W 095°01'0 0.0
2018-Jun-12 04:28N 29°37' W 095°01'0 0.0
2018-Jun-12 04:00N 29°37' W 095°01'0 0.0
2018-Jun-11 21:25N 29°36' W 095°01'0 0.0
2018-Jun-11 20:54N 29°36' W 095°01'0 0.0
2018-Jun-11 19:54N 29°36' W 095°01'0 0.0
2018-Jun-11 19:02N 29°36' W 095°01'0 0.0
2018-Jun-11 18:46N 29°36' W 095°01'0 0.0
2018-Jun-11 18:01N 29°36' W 095°01'0 0.1
2018-Jun-11 17:54N 29°36' W 095°01'2 4.4
2018-Jun-11 17:30N 29°37' W 094°59'18 3.5
2018-Jun-11 12:26N 29°23' W 094°46'20 2.9
2018-Jun-11 05:24N 29°34' W 094°27'3 4.4
2018-Jun-11 04:45N 29°36' W 094°24'3 5.0
2018-Jun-11 04:12N 29°37' W 094°21'1 5.5
2018-Jun-11 04:00N 29°37' W 094°20'3 5.3
2018-Jun-11 03:29N 29°38' W 094°17'3 5.2
2018-Jun-11 03:00N 29°40' W 094°15'3 5.2
2018-Jun-11 02:30N 29°41' W 094°12'3 5.2
2018-Jun-11 02:00N 29°41' W 094°09'3 5.2
2018-Jun-11 01:30N 29°43' W 094°07'3 5.2
2018-Jun-11 01:00N 29°45' W 094°05'3 5.1
2018-Jun-11 00:30N 29°46' W 094°02'3 5.2
2018-Jun-11 00:00N 29°48' W 094°00'2 4.8
2018-Jun-10 23:30N 29°49' W 093°58'3 6.8
2018-Jun-10 23:00N 29°52' W 093°56'4 7.3
2018-Jun-10 22:30N 29°55' W 093°53'3 6.9
2018-Jun-10 22:00N 29°58' W 093°51'3 5.9
2018-Jun-10 21:30N 29°59' W 093°48'3 6.0
2018-Jun-10 21:00N 30°01' W 093°45'2 4.9
2018-Jun-10 20:30N 30°03' W 093°44'0 0.4
2018-Jun-10 20:00N 30°03' W 093°44'0 0.0
2018-Jun-10 19:30N 30°03' W 093°44'  

Dump ship's entire track history